sensor_id;sensor_type;location;lat;lon;timestamp;temperature;humidity
43087;DHT22;28708;52.224;6.924;2023-05-29T00:02:07;12.00;99.90
43087;DHT22;28708;52.224;6.924;2023-05-29T00:04:33;12.00;99.90
43087;DHT22;28708;52.224;6.924;2023-05-29T00:06:59;11.90;99.90
43087;DHT22;28708;52.224;6.924;2023-05-29T00:09:24;11.90;99.90
43087;DHT22;28708;52.224;6.924;2023-05-29T00:11:50;11.90;99.90
43087;DHT22;28708;52.224;6.924;2023-05-29T00:14:20;11.80;99.90
43087;DHT22;28708;52.224;6.924;2023-05-29T00:16:48;11.90;99.90
43087;DHT22;28708;52.224;6.924;2023-05-29T00:19:15;11.90;99.90
43087;DHT22;28708;52.224;6.924;2023-05-29T00:21:45;11.90;99.90
43087;DHT22;28708;52.224;6.924;2023-05-29T00:24:14;11.90;99.90
43087;DHT22;28708;52.224;6.924;2023-05-29T00:26:40;11.90;99.90
43087;DHT22;28708;52.224;6.924;2023-05-29T00:29:06;11.70;99.90
43087;DHT22;28708;52.224;6.924;2023-05-29T00:31:32;11.60;99.90
43087;DHT22;28708;52.224;6.924;2023-05-29T00:33:58;11.60;99.90
43087;DHT22;28708;52.224;6.924;2023-05-29T00:36:24;11.70;99.90
43087;DHT22;28708;52.224;6.924;2023-05-29T00:38:50;11.60;99.90
43087;DHT22;28708;52.224;6.924;2023-05-29T00:41:16;11.70;99.90
43087;DHT22;28708;52.224;6.924;2023-05-29T00:43:42;11.70;99.90
43087;DHT22;28708;52.224;6.924;2023-05-29T00:46:09;11.60;99.90
43087;DHT22;28708;52.224;6.924;2023-05-29T00:48:37;11.70;99.90
43087;DHT22;28708;52.224;6.924;2023-05-29T00:51:03;11.60;99.90
43087;DHT22;28708;52.224;6.924;2023-05-29T00:53:29;11.50;99.90
43087;DHT22;28708;52.224;6.924;2023-05-29T00:55:55;11.50;99.90
43087;DHT22;28708;52.224;6.924;2023-05-29T00:58:21;11.60;99.90
43087;DHT22;28708;52.224;6.924;2023-05-29T01:00:47;11.50;99.90
43087;DHT22;28708;52.224;6.924;2023-05-29T01:03:14;11.40;99.90
43087;DHT22;28708;52.224;6.924;2023-05-29T01:05:44;11.50;99.90
43087;DHT22;28708;52.224;6.924;2023-05-29T01:08:10;11.40;99.90
43087;DHT22;28708;52.224;6.924;2023-05-29T01:10:36;11.40;99.90
43087;DHT22;28708;52.224;6.924;2023-05-29T01:13:09;11.40;99.90
43087;DHT22;28708;52.224;6.924;2023-05-29T01:15:58;11.30;99.90
43087;DHT22;28708;52.224;6.924;2023-05-29T01:18:54;11.30;99.90
43087;DHT22;28708;52.224;6.924;2023-05-29T01:24:32;11.30;99.90
43087;DHT22;28708;52.224;6.924;2023-05-29T01:27:10;11.30;99.90
43087;DHT22;28708;52.224;6.924;2023-05-29T01:29:39;11.20;99.90
43087;DHT22;28708;52.224;6.924;2023-05-29T01:32:08;11.30;99.90
43087;DHT22;28708;52.224;6.924;2023-05-29T01:34:34;11.20;99.90
43087;DHT22;28708;52.224;6.924;2023-05-29T01:36:59;11.20;99.90
43087;DHT22;28708;52.224;6.924;2023-05-29T01:39:25;11.10;99.90
43087;DHT22;28708;52.224;6.924;2023-05-29T01:41:52;11.10;99.90
43087;DHT22;28708;52.224;6.924;2023-05-29T01:44:18;11.20;99.90
43087;DHT22;28708;52.224;6.924;2023-05-29T01:46:46;11.20;99.90
43087;DHT22;28708;52.224;6.924;2023-05-29T01:49:12;11.10;99.90
43087;DHT22;28708;52.224;6.924;2023-05-29T01:51:42;11.10;99.90
43087;DHT22;28708;52.224;6.924;2023-05-29T01:54:08;11.10;99.90
43087;DHT22;28708;52.224;6.924;2023-05-29T01:56:35;11.10;99.90
43087;DHT22;28708;52.224;6.924;2023-05-29T01:59:03;11.10;99.90
43087;DHT22;28708;52.224;6.924;2023-05-29T02:01:29;11.00;99.90
43087;DHT22;28708;52.224;6.924;2023-05-29T02:03:56;11.00;99.90
43087;DHT22;28708;52.224;6.924;2023-05-29T02:06:21;11.00;99.90
43087;DHT22;28708;52.224;6.924;2023-05-29T02:08:47;11.00;99.90
43087;DHT22;28708;52.224;6.924;2023-05-29T02:11:13;10.90;99.90
43087;DHT22;28708;52.224;6.924;2023-05-29T02:13:39;10.90;99.90
43087;DHT22;28708;52.224;6.924;2023-05-29T02:16:05;10.90;99.90
43087;DHT22;28708;52.224;6.924;2023-05-29T02:18:31;10.90;99.90
43087;DHT22;28708;52.224;6.924;2023-05-29T02:20:57;10.90;99.90
43087;DHT22;28708;52.224;6.924;2023-05-29T02:23:22;10.80;99.90
43087;DHT22;28708;52.224;6.924;2023-05-29T02:25:50;10.80;99.90
43087;DHT22;28708;52.224;6.924;2023-05-29T02:28:16;10.70;99.90
43087;DHT22;28708;52.224;6.924;2023-05-29T02:30:41;10.70;99.90
43087;DHT22;28708;52.224;6.924;2023-05-29T02:33:08;10.70;99.90
43087;DHT22;28708;52.224;6.924;2023-05-29T02:35:34;10.80;99.90
43087;DHT22;28708;52.224;6.924;2023-05-29T02:38:00;10.70;99.90
43087;DHT22;28708;52.224;6.924;2023-05-29T02:40:26;10.70;99.90
43087;DHT22;28708;52.224;6.924;2023-05-29T02:42:51;10.80;99.90
43087;DHT22;28708;52.224;6.924;2023-05-29T02:45:17;10.70;99.90
43087;DHT22;28708;52.224;6.924;2023-05-29T02:47:43;10.80;99.90
43087;DHT22;28708;52.224;6.924;2023-05-29T02:50:09;10.80;99.90
43087;DHT22;28708;52.224;6.924;2023-05-29T02:52:35;10.70;99.90
43087;DHT22;28708;52.224;6.924;2023-05-29T02:55:05;10.60;99.90
43087;DHT22;28708;52.224;6.924;2023-05-29T02:57:31;10.60;99.90
43087;DHT22;28708;52.224;6.924;2023-05-29T02:59:58;10.50;99.90
43087;DHT22;28708;52.224;6.924;2023-05-29T03:02:23;10.50;99.90
43087;DHT22;28708;52.224;6.924;2023-05-29T03:04:50;10.60;99.90
43087;DHT22;28708;52.224;6.924;2023-05-29T03:07:18;10.40;99.90
43087;DHT22;28708;52.224;6.924;2023-05-29T03:09:44;10.40;99.90
43087;DHT22;28708;52.224;6.924;2023-05-29T03:12:10;10.40;99.90
43087;DHT22;28708;52.224;6.924;2023-05-29T03:14:36;10.40;99.90
43087;DHT22;28708;52.224;6.924;2023-05-29T03:17:05;10.40;99.90
43087;DHT22;28708;52.224;6.924;2023-05-29T03:19:33;10.50;99.90
43087;DHT22;28708;52.224;6.924;2023-05-29T03:21:59;10.40;99.90
43087;DHT22;28708;52.224;6.924;2023-05-29T03:24:25;10.30;99.90
43087;DHT22;28708;52.224;6.924;2023-05-29T03:26:50;10.30;99.90
43087;DHT22;28708;52.224;6.924;2023-05-29T03:29:17;10.30;99.90
43087;DHT22;28708;52.224;6.924;2023-05-29T03:31:43;10.30;99.90
43087;DHT22;28708;52.224;6.924;2023-05-29T03:34:11;10.30;99.90
43087;DHT22;28708;52.224;6.924;2023-05-29T03:36:48;10.30;99.90
43087;DHT22;28708;52.224;6.924;2023-05-29T03:39:14;10.30;99.90
43087;DHT22;28708;52.224;6.924;2023-05-29T03:41:40;10.20;99.90
43087;DHT22;28708;52.224;6.924;2023-05-29T03:44:06;10.30;99.90
43087;DHT22;28708;52.224;6.924;2023-05-29T03:46:32;10.30;99.90
43087;DHT22;28708;52.224;6.924;2023-05-29T03:48:59;10.20;99.90
43087;DHT22;28708;52.224;6.924;2023-05-29T03:51:24;10.10;99.90
43087;DHT22;28708;52.224;6.924;2023-05-29T03:53:53;10.20;99.90
43087;DHT22;28708;52.224;6.924;2023-05-29T03:56:18;10.20;99.90
43087;DHT22;28708;52.224;6.924;2023-05-29T03:58:45;10.20;99.90
43087;DHT22;28708;52.224;6.924;2023-05-29T04:01:12;10.20;99.90
43087;DHT22;28708;52.224;6.924;2023-05-29T04:03:37;10.30;99.90
43087;DHT22;28708;52.224;6.924;2023-05-29T04:06:03;10.20;99.90
43087;DHT22;28708;52.224;6.924;2023-05-29T04:08:29;10.30;99.90
43087;DHT22;28708;52.224;6.924;2023-05-29T04:10:55;10.30;99.90
43087;DHT22;28708;52.224;6.924;2023-05-29T04:13:21;10.30;99.90
43087;DHT22;28708;52.224;6.924;2023-05-29T04:15:47;10.30;99.90
43087;DHT22;28708;52.224;6.924;2023-05-29T04:18:14;10.30;99.90
43087;DHT22;28708;52.224;6.924;2023-05-29T04:20:40;10.40;99.90
43087;DHT22;28708;52.224;6.924;2023-05-29T04:23:06;10.30;99.90
43087;DHT22;28708;52.224;6.924;2023-05-29T04:25:32;10.30;99.90
43087;DHT22;28708;52.224;6.924;2023-05-29T04:27:59;10.30;99.90
43087;DHT22;28708;52.224;6.924;2023-05-29T04:30:27;10.40;99.90
43087;DHT22;28708;52.224;6.924;2023-05-29T04:32:54;10.40;99.90
43087;DHT22;28708;52.224;6.924;2023-05-29T04:35:21;10.40;99.90
43087;DHT22;28708;52.224;6.924;2023-05-29T04:37:56;10.40;99.90
43087;DHT22;28708;52.224;6.924;2023-05-29T04:40:25;10.40;99.90
43087;DHT22;28708;52.224;6.924;2023-05-29T04:42:51;10.50;99.90
43087;DHT22;28708;52.224;6.924;2023-05-29T04:45:19;10.50;99.90
43087;DHT22;28708;52.224;6.924;2023-05-29T04:47:46;10.40;99.90
43087;DHT22;28708;52.224;6.924;2023-05-29T04:50:13;10.40;99.90
43087;DHT22;28708;52.224;6.924;2023-05-29T04:52:40;10.50;99.90
43087;DHT22;28708;52.224;6.924;2023-05-29T04:55:09;10.50;99.90
43087;DHT22;28708;52.224;6.924;2023-05-29T04:57:35;10.60;99.90
43087;DHT22;28708;52.224;6.924;2023-05-29T05:00:02;10.60;99.90
43087;DHT22;28708;52.224;6.924;2023-05-29T05:02:33;10.60;99.90
43087;DHT22;28708;52.224;6.924;2023-05-29T05:04:59;10.70;99.90
43087;DHT22;28708;52.224;6.924;2023-05-29T05:07:24;10.80;99.90
43087;DHT22;28708;52.224;6.924;2023-05-29T05:09:51;10.70;99.90
43087;DHT22;28708;52.224;6.924;2023-05-29T05:12:20;10.70;99.90
43087;DHT22;28708;52.224;6.924;2023-05-29T05:14:46;10.80;99.90
43087;DHT22;28708;52.224;6.924;2023-05-29T05:17:12;10.80;99.90
43087;DHT22;28708;52.224;6.924;2023-05-29T05:19:38;10.80;99.90
43087;DHT22;28708;52.224;6.924;2023-05-29T05:22:04;10.80;99.90
43087;DHT22;28708;52.224;6.924;2023-05-29T05:24:29;10.80;99.90
43087;DHT22;28708;52.224;6.924;2023-05-29T05:26:57;10.90;99.90
43087;DHT22;28708;52.224;6.924;2023-05-29T05:29:23;11.00;99.90
43087;DHT22;28708;52.224;6.924;2023-05-29T05:31:48;11.00;99.90
43087;DHT22;28708;52.224;6.924;2023-05-29T05:34:14;11.00;99.90
43087;DHT22;28708;52.224;6.924;2023-05-29T05:36:42;11.00;99.90
43087;DHT22;28708;52.224;6.924;2023-05-29T05:39:12;11.00;99.90
43087;DHT22;28708;52.224;6.924;2023-05-29T05:41:38;11.20;99.90
43087;DHT22;28708;52.224;6.924;2023-05-29T05:44:04;11.20;99.90
43087;DHT22;28708;52.224;6.924;2023-05-29T05:46:53;11.20;99.90
43087;DHT22;28708;52.224;6.924;2023-05-29T05:49:20;11.20;99.90
43087;DHT22;28708;52.224;6.924;2023-05-29T05:51:45;11.30;99.90
43087;DHT22;28708;52.224;6.924;2023-05-29T05:54:11;11.20;99.90
43087;DHT22;28708;52.224;6.924;2023-05-29T05:56:37;11.20;99.90
43087;DHT22;28708;52.224;6.924;2023-05-29T05:59:03;11.40;99.90
43087;DHT22;28708;52.224;6.924;2023-05-29T06:01:29;11.40;99.90
43087;DHT22;28708;52.224;6.924;2023-05-29T06:03:55;11.40;99.90
43087;DHT22;28708;52.224;6.924;2023-05-29T06:06:23;11.50;99.90
43087;DHT22;28708;52.224;6.924;2023-05-29T06:08:49;11.60;99.90
43087;DHT22;28708;52.224;6.924;2023-05-29T06:11:15;11.60;99.90
43087;DHT22;28708;52.224;6.924;2023-05-29T06:13:43;11.70;99.90
43087;DHT22;28708;52.224;6.924;2023-05-29T06:16:16;11.70;99.90
43087;DHT22;28708;52.224;6.924;2023-05-29T06:18:42;11.80;99.90
43087;DHT22;28708;52.224;6.924;2023-05-29T06:21:08;11.90;99.90
43087;DHT22;28708;52.224;6.924;2023-05-29T06:23:36;12.00;99.90
43087;DHT22;28708;52.224;6.924;2023-05-29T06:26:02;12.00;99.90
43087;DHT22;28708;52.224;6.924;2023-05-29T06:28:29;12.00;99.90
43087;DHT22;28708;52.224;6.924;2023-05-29T06:30:56;12.00;99.90
43087;DHT22;28708;52.224;6.924;2023-05-29T06:33:22;11.90;99.90
43087;DHT22;28708;52.224;6.924;2023-05-29T06:35:49;12.00;99.90
43087;DHT22;28708;52.224;6.924;2023-05-29T06:38:15;12.00;99.90
43087;DHT22;28708;52.224;6.924;2023-05-29T06:40:41;12.00;99.90
43087;DHT22;28708;52.224;6.924;2023-05-29T06:43:06;12.20;99.90
43087;DHT22;28708;52.224;6.924;2023-05-29T06:45:38;12.30;99.90
43087;DHT22;28708;52.224;6.924;2023-05-29T06:48:03;12.30;99.90
43087;DHT22;28708;52.224;6.924;2023-05-29T06:50:29;12.30;99.90
43087;DHT22;28708;52.224;6.924;2023-05-29T06:53:00;12.40;99.90
43087;DHT22;28708;52.224;6.924;2023-05-29T06:55:30;12.50;99.90
43087;DHT22;28708;52.224;6.924;2023-05-29T06:57:57;12.40;99.90
43087;DHT22;28708;52.224;6.924;2023-05-29T07:00:25;12.40;99.90
43087;DHT22;28708;52.224;6.924;2023-05-29T07:03:04;12.60;99.90
43087;DHT22;28708;52.224;6.924;2023-05-29T07:05:29;12.70;99.90
43087;DHT22;28708;52.224;6.924;2023-05-29T07:07:55;12.90;99.90
43087;DHT22;28708;52.224;6.924;2023-05-29T07:10:21;13.00;99.90
43087;DHT22;28708;52.224;6.924;2023-05-29T07:12:47;13.10;99.90
43087;DHT22;28708;52.224;6.924;2023-05-29T07:15:12;13.10;99.90
43087;DHT22;28708;52.224;6.924;2023-05-29T07:17:39;13.20;99.90
43087;DHT22;28708;52.224;6.924;2023-05-29T07:20:15;13.20;99.90
43087;DHT22;28708;52.224;6.924;2023-05-29T07:22:41;13.30;99.90
43087;DHT22;28708;52.224;6.924;2023-05-29T07:25:06;13.40;99.90
43087;DHT22;28708;52.224;6.924;2023-05-29T07:27:33;13.40;99.90
43087;DHT22;28708;52.224;6.924;2023-05-29T07:30:01;13.40;99.90
43087;DHT22;28708;52.224;6.924;2023-05-29T07:32:27;13.40;99.90
43087;DHT22;28708;52.224;6.924;2023-05-29T07:34:53;13.50;99.90
43087;DHT22;28708;52.224;6.924;2023-05-29T07:37:20;13.50;99.90
43087;DHT22;28708;52.224;6.924;2023-05-29T07:39:46;13.70;99.90
43087;DHT22;28708;52.224;6.924;2023-05-29T07:42:33;14.00;99.90
43087;DHT22;28708;52.224;6.924;2023-05-29T07:44:58;14.10;99.90
43087;DHT22;28708;52.224;6.924;2023-05-29T07:47:24;14.30;99.90
43087;DHT22;28708;52.224;6.924;2023-05-29T07:49:50;14.40;99.90
43087;DHT22;28708;52.224;6.924;2023-05-29T07:52:18;14.30;99.90
43087;DHT22;28708;52.224;6.924;2023-05-29T07:54:44;14.20;99.90
43087;DHT22;28708;52.224;6.924;2023-05-29T07:57:11;14.20;99.90
43087;DHT22;28708;52.224;6.924;2023-05-29T07:59:42;14.40;99.90
43087;DHT22;28708;52.224;6.924;2023-05-29T08:02:09;14.40;99.90
43087;DHT22;28708;52.224;6.924;2023-05-29T08:05:13;14.50;99.90
43087;DHT22;28708;52.224;6.924;2023-05-29T08:07:39;14.60;99.90
43087;DHT22;28708;52.224;6.924;2023-05-29T08:10:05;14.50;99.90
43087;DHT22;28708;52.224;6.924;2023-05-29T08:12:31;14.60;99.90
43087;DHT22;28708;52.224;6.924;2023-05-29T08:14:59;15.20;99.90
43087;DHT22;28708;52.224;6.924;2023-05-29T08:17:25;15.60;99.90
43087;DHT22;28708;52.224;6.924;2023-05-29T08:19:50;16.40;99.90
43087;DHT22;28708;52.224;6.924;2023-05-29T08:22:16;16.90;99.90
43087;DHT22;28708;52.224;6.924;2023-05-29T08:24:42;17.50;99.90
43087;DHT22;28708;52.224;6.924;2023-05-29T08:27:07;17.90;99.90
43087;DHT22;28708;52.224;6.924;2023-05-29T08:29:33;18.50;99.90
43087;DHT22;28708;52.224;6.924;2023-05-29T08:31:59;18.80;99.90
43087;DHT22;28708;52.224;6.924;2023-05-29T08:34:24;18.70;99.90
43087;DHT22;28708;52.224;6.924;2023-05-29T08:36:50;18.80;99.90
43087;DHT22;28708;52.224;6.924;2023-05-29T08:39:17;18.70;99.90
43087;DHT22;28708;52.224;6.924;2023-05-29T08:42:01;18.70;99.90
43087;DHT22;28708;52.224;6.924;2023-05-29T08:44:31;18.70;99.90
43087;DHT22;28708;52.224;6.924;2023-05-29T08:47:01;19.30;99.90
43087;DHT22;28708;52.224;6.924;2023-05-29T08:49:29;19.80;99.80
43087;DHT22;28708;52.224;6.924;2023-05-29T08:52:16;19.20;99.50
43087;DHT22;28708;52.224;6.924;2023-05-29T08:54:42;19.60;98.00
43087;DHT22;28708;52.224;6.924;2023-05-29T08:57:09;20.20;97.50
43087;DHT22;28708;52.224;6.924;2023-05-29T08:59:37;20.00;96.10
43087;DHT22;28708;52.224;6.924;2023-05-29T09:02:04;20.00;94.60
43087;DHT22;28708;52.224;6.924;2023-05-29T09:04:31;20.30;94.20
43087;DHT22;28708;52.224;6.924;2023-05-29T09:06:57;20.80;94.00
43087;DHT22;28708;52.224;6.924;2023-05-29T09:09:25;21.00;92.80
43087;DHT22;28708;52.224;6.924;2023-05-29T09:11:52;21.00;92.90
43087;DHT22;28708;52.224;6.924;2023-05-29T09:14:35;20.80;91.10
43087;DHT22;28708;52.224;6.924;2023-05-29T09:17:03;20.80;91.50
43087;DHT22;28708;52.224;6.924;2023-05-29T09:19:29;20.50;91.10
43087;DHT22;28708;52.224;6.924;2023-05-29T09:22:06;20.60;91.00
43087;DHT22;28708;52.224;6.924;2023-05-29T09:24:36;21.10;90.10
43087;DHT22;28708;52.224;6.924;2023-05-29T09:27:03;21.10;90.00
43087;DHT22;28708;52.224;6.924;2023-05-29T09:29:45;21.20;89.00
43087;DHT22;28708;52.224;6.924;2023-05-29T09:32:16;21.60;88.80
43087;DHT22;28708;52.224;6.924;2023-05-29T09:34:43;21.90;87.50
43087;DHT22;28708;52.224;6.924;2023-05-29T09:37:10;22.20;86.90
43087;DHT22;28708;52.224;6.924;2023-05-29T09:39:50;22.40;85.50
43087;DHT22;28708;52.224;6.924;2023-05-29T09:42:17;21.70;85.40
43087;DHT22;28708;52.224;6.924;2023-05-29T09:44:52;21.40;86.00
43087;DHT22;28708;52.224;6.924;2023-05-29T09:47:19;21.30;84.90
43087;DHT22;28708;52.224;6.924;2023-05-29T09:49:45;21.20;87.40
43087;DHT22;28708;52.224;6.924;2023-05-29T09:52:15;21.60;84.70
43087;DHT22;28708;52.224;6.924;2023-05-29T09:54:46;21.20;84.40
43087;DHT22;28708;52.224;6.924;2023-05-29T09:57:16;21.40;85.30
43087;DHT22;28708;52.224;6.924;2023-05-29T09:59:45;21.80;83.20
43087;DHT22;28708;52.224;6.924;2023-05-29T10:02:14;21.60;84.10
43087;DHT22;28708;52.224;6.924;2023-05-29T10:04:41;22.00;82.40
43087;DHT22;28708;52.224;6.924;2023-05-29T10:07:15;22.30;81.70
43087;DHT22;28708;52.224;6.924;2023-05-29T10:09:44;23.30;80.80
43087;DHT22;28708;52.224;6.924;2023-05-29T10:12:13;23.20;78.30
43087;DHT22;28708;52.224;6.924;2023-05-29T10:14:42;23.00;78.80
43087;DHT22;28708;52.224;6.924;2023-05-29T10:17:09;23.00;76.70
43087;DHT22;28708;52.224;6.924;2023-05-29T10:19:38;22.80;75.50
43087;DHT22;28708;52.224;6.924;2023-05-29T10:22:04;22.70;77.50
43087;DHT22;28708;52.224;6.924;2023-05-29T10:24:36;22.40;76.30
43087;DHT22;28708;52.224;6.924;2023-05-29T10:27:04;22.20;76.20
43087;DHT22;28708;52.224;6.924;2023-05-29T10:32:01;22.80;73.70
43087;DHT22;28708;52.224;6.924;2023-05-29T10:34:44;22.40;75.70
43087;DHT22;28708;52.224;6.924;2023-05-29T10:37:46;22.90;75.80
43087;DHT22;28708;52.224;6.924;2023-05-29T10:40:11;22.90;76.30
43087;DHT22;28708;52.224;6.924;2023-05-29T10:42:50;22.40;75.70
43087;DHT22;28708;52.224;6.924;2023-05-29T10:50:47;22.40;74.00
43087;DHT22;28708;52.224;6.924;2023-05-29T10:53:26;22.50;74.60
43087;DHT22;28708;52.224;6.924;2023-05-29T10:55:53;22.50;76.30
43087;DHT22;28708;52.224;6.924;2023-05-29T10:58:23;22.10;75.80
43087;DHT22;28708;52.224;6.924;2023-05-29T11:00:50;22.00;75.30
43087;DHT22;28708;52.224;6.924;2023-05-29T11:03:23;22.20;73.80
43087;DHT22;28708;52.224;6.924;2023-05-29T11:08:43;22.00;73.80
43087;DHT22;28708;52.224;6.924;2023-05-29T11:11:15;21.70;74.20
43087;DHT22;28708;52.224;6.924;2023-05-29T11:13:55;22.00;73.90
43087;DHT22;28708;52.224;6.924;2023-05-29T11:18:59;22.00;74.60
43087;DHT22;28708;52.224;6.924;2023-05-29T11:22:07;22.10;73.30
43087;DHT22;28708;52.224;6.924;2023-05-29T11:24:35;21.80;71.60
43087;DHT22;28708;52.224;6.924;2023-05-29T11:27:03;21.40;70.80
43087;DHT22;28708;52.224;6.924;2023-05-29T11:29:32;21.10;73.40
43087;DHT22;28708;52.224;6.924;2023-05-29T11:32:07;21.00;74.80
43087;DHT22;28708;52.224;6.924;2023-05-29T11:34:39;20.80;75.40
43087;DHT22;28708;52.224;6.924;2023-05-29T11:37:05;20.50;73.70
43087;DHT22;28708;52.224;6.924;2023-05-29T11:39:35;20.30;74.90
43087;DHT22;28708;52.224;6.924;2023-05-29T11:42:01;20.30;74.10
43087;DHT22;28708;52.224;6.924;2023-05-29T11:44:27;20.20;75.70
43087;DHT22;28708;52.224;6.924;2023-05-29T11:47:03;20.10;74.70
43087;DHT22;28708;52.224;6.924;2023-05-29T11:49:31;20.00;74.60
43087;DHT22;28708;52.224;6.924;2023-05-29T11:52:14;20.00;78.40
43087;DHT22;28708;52.224;6.924;2023-05-29T11:54:40;19.70;77.50
43087;DHT22;28708;52.224;6.924;2023-05-29T11:57:19;19.70;78.90
43087;DHT22;28708;52.224;6.924;2023-05-29T11:59:45;19.70;76.10
43087;DHT22;28708;52.224;6.924;2023-05-29T12:02:11;19.90;78.20
43087;DHT22;28708;52.224;6.924;2023-05-29T12:04:37;20.00;78.00
43087;DHT22;28708;52.224;6.924;2023-05-29T12:07:17;19.80;78.40
43087;DHT22;28708;52.224;6.924;2023-05-29T12:09:42;19.90;77.20
43087;DHT22;28708;52.224;6.924;2023-05-29T12:12:08;20.10;75.40
43087;DHT22;28708;52.224;6.924;2023-05-29T12:14:34;20.20;76.50
43087;DHT22;28708;52.224;6.924;2023-05-29T12:16:59;20.00;76.20
43087;DHT22;28708;52.224;6.924;2023-05-29T12:19:25;20.00;77.40
43087;DHT22;28708;52.224;6.924;2023-05-29T12:21:51;20.00;77.60
43087;DHT22;28708;52.224;6.924;2023-05-29T12:24:19;19.90;76.70
43087;DHT22;28708;52.224;6.924;2023-05-29T12:26:44;19.90;76.10
43087;DHT22;28708;52.224;6.924;2023-05-29T12:29:12;20.10;75.90
43087;DHT22;28708;52.224;6.924;2023-05-29T12:31:38;20.20;77.50
43087;DHT22;28708;52.224;6.924;2023-05-29T12:34:11;20.30;74.80
43087;DHT22;28708;52.224;6.924;2023-05-29T12:36:41;20.40;75.80
43087;DHT22;28708;52.224;6.924;2023-05-29T12:39:08;20.30;75.20
43087;DHT22;28708;52.224;6.924;2023-05-29T12:41:35;20.30;75.60
43087;DHT22;28708;52.224;6.924;2023-05-29T12:44:03;20.30;75.10
43087;DHT22;28708;52.224;6.924;2023-05-29T12:46:36;20.30;75.20
43087;DHT22;28708;52.224;6.924;2023-05-29T12:49:15;20.50;77.00
43087;DHT22;28708;52.224;6.924;2023-05-29T12:51:42;20.30;74.90
43087;DHT22;28708;52.224;6.924;2023-05-29T12:54:11;20.40;75.10
43087;DHT22;28708;52.224;6.924;2023-05-29T12:56:38;20.30;75.60
43087;DHT22;28708;52.224;6.924;2023-05-29T12:59:09;20.20;76.20
43087;DHT22;28708;52.224;6.924;2023-05-29T13:01:36;20.30;75.90
43087;DHT22;28708;52.224;6.924;2023-05-29T13:04:04;20.00;75.80
43087;DHT22;28708;52.224;6.924;2023-05-29T13:06:43;20.20;78.50
43087;DHT22;28708;52.224;6.924;2023-05-29T13:09:08;20.30;76.10
43087;DHT22;28708;52.224;6.924;2023-05-29T13:11:34;20.40;76.80
43087;DHT22;28708;52.224;6.924;2023-05-29T13:14:00;20.40;76.50
43087;DHT22;28708;52.224;6.924;2023-05-29T13:16:25;20.40;75.20
43087;DHT22;28708;52.224;6.924;2023-05-29T13:18:51;20.70;76.30
43087;DHT22;28708;52.224;6.924;2023-05-29T13:21:17;20.90;75.50
43087;DHT22;28708;52.224;6.924;2023-05-29T13:23:42;20.80;76.20
43087;DHT22;28708;52.224;6.924;2023-05-29T13:26:08;20.70;74.70
43087;DHT22;28708;52.224;6.924;2023-05-29T13:28:37;20.80;74.00
43087;DHT22;28708;52.224;6.924;2023-05-29T13:31:03;20.90;74.30
43087;DHT22;28708;52.224;6.924;2023-05-29T13:33:31;20.80;74.30
43087;DHT22;28708;52.224;6.924;2023-05-29T13:35:59;21.00;75.90
43087;DHT22;28708;52.224;6.924;2023-05-29T13:38:25;20.90;75.10
43087;DHT22;28708;52.224;6.924;2023-05-29T13:40:50;20.80;73.10
43087;DHT22;28708;52.224;6.924;2023-05-29T13:43:16;20.70;74.90
43087;DHT22;28708;52.224;6.924;2023-05-29T13:45:42;20.90;73.40
43087;DHT22;28708;52.224;6.924;2023-05-29T13:48:07;20.90;73.50
43087;DHT22;28708;52.224;6.924;2023-05-29T13:50:33;21.10;74.30
43087;DHT22;28708;52.224;6.924;2023-05-29T13:53:00;21.10;73.10
43087;DHT22;28708;52.224;6.924;2023-05-29T13:55:25;21.00;73.60
43087;DHT22;28708;52.224;6.924;2023-05-29T13:57:51;21.10;72.90
43087;DHT22;28708;52.224;6.924;2023-05-29T14:00:18;21.00;71.30
43087;DHT22;28708;52.224;6.924;2023-05-29T14:02:44;20.90;71.80
43087;DHT22;28708;52.224;6.924;2023-05-29T14:05:10;21.00;72.70
43087;DHT22;28708;52.224;6.924;2023-05-29T14:07:36;21.30;72.00
43087;DHT22;28708;52.224;6.924;2023-05-29T14:10:06;21.20;70.70
43087;DHT22;28708;52.224;6.924;2023-05-29T14:12:31;21.10;70.10
43087;DHT22;28708;52.224;6.924;2023-05-29T14:15:00;21.10;67.80
43087;DHT22;28708;52.224;6.924;2023-05-29T14:17:26;21.00;69.50
43087;DHT22;28708;52.224;6.924;2023-05-29T14:19:51;21.10;71.20
43087;DHT22;28708;52.224;6.924;2023-05-29T14:22:17;21.00;71.20
43087;DHT22;28708;52.224;6.924;2023-05-29T14:24:43;21.00;72.60
43087;DHT22;28708;52.224;6.924;2023-05-29T14:27:09;20.80;71.50
43087;DHT22;28708;52.224;6.924;2023-05-29T14:29:34;20.80;74.40
43087;DHT22;28708;52.224;6.924;2023-05-29T14:32:00;20.80;72.60
43087;DHT22;28708;52.224;6.924;2023-05-29T14:34:25;20.90;74.60
43087;DHT22;28708;52.224;6.924;2023-05-29T14:36:51;20.70;73.80
43087;DHT22;28708;52.224;6.924;2023-05-29T14:39:17;20.50;73.20
43087;DHT22;28708;52.224;6.924;2023-05-29T14:41:43;20.70;75.40
43087;DHT22;28708;52.224;6.924;2023-05-29T14:44:09;20.90;74.20
43087;DHT22;28708;52.224;6.924;2023-05-29T14:46:36;20.80;72.40
43087;DHT22;28708;52.224;6.924;2023-05-29T14:49:02;20.90;72.10
43087;DHT22;28708;52.224;6.924;2023-05-29T14:51:28;20.80;73.60
43087;DHT22;28708;52.224;6.924;2023-05-29T14:53:54;20.50;72.50
43087;DHT22;28708;52.224;6.924;2023-05-29T14:56:20;20.70;72.90
43087;DHT22;28708;52.224;6.924;2023-05-29T14:58:46;20.60;71.80
43087;DHT22;28708;52.224;6.924;2023-05-29T15:01:14;20.30;70.50
43087;DHT22;28708;52.224;6.924;2023-05-29T15:03:40;20.40;71.60
43087;DHT22;28708;52.224;6.924;2023-05-29T15:06:06;20.40;72.20
43087;DHT22;28708;52.224;6.924;2023-05-29T15:08:32;20.40;72.00
43087;DHT22;28708;52.224;6.924;2023-05-29T15:11:01;20.40;71.90
43087;DHT22;28708;52.224;6.924;2023-05-29T15:13:29;20.40;70.80
43087;DHT22;28708;52.224;6.924;2023-05-29T15:15:56;20.50;71.70
43087;DHT22;28708;52.224;6.924;2023-05-29T15:18:25;20.30;72.30
43087;DHT22;28708;52.224;6.924;2023-05-29T15:20:51;20.20;69.40
43087;DHT22;28708;52.224;6.924;2023-05-29T15:23:18;20.20;71.60
43087;DHT22;28708;52.224;6.924;2023-05-29T15:25:47;20.20;71.30
43087;DHT22;28708;52.224;6.924;2023-05-29T15:28:13;20.30;71.90
43087;DHT22;28708;52.224;6.924;2023-05-29T15:30:38;20.40;69.80
43087;DHT22;28708;52.224;6.924;2023-05-29T15:33:04;20.30;71.10
43087;DHT22;28708;52.224;6.924;2023-05-29T15:35:33;20.30;71.90
43087;DHT22;28708;52.224;6.924;2023-05-29T15:37:58;20.10;69.60
43087;DHT22;28708;52.224;6.924;2023-05-29T15:40:24;20.20;70.30
43087;DHT22;28708;52.224;6.924;2023-05-29T15:42:50;20.20;70.70
43087;DHT22;28708;52.224;6.924;2023-05-29T15:45:15;20.10;71.20
43087;DHT22;28708;52.224;6.924;2023-05-29T15:47:41;20.10;71.10
43087;DHT22;28708;52.224;6.924;2023-05-29T15:50:07;20.00;71.90
43087;DHT22;28708;52.224;6.924;2023-05-29T15:52:33;20.10;70.50